sensor_id;sensor_type;location;lat;lon;timestamp;temperature;humidity
44215;DHT22;29884;47.450;19.124;2023-05-20T00:01:39;15.70;99.90
44215;DHT22;29884;47.450;19.124;2023-05-20T00:04:05;15.70;99.90
44215;DHT22;29884;47.450;19.124;2023-05-20T00:06:31;15.70;99.90
44215;DHT22;29884;47.450;19.124;2023-05-20T00:08:56;15.70;99.90
44215;DHT22;29884;47.450;19.124;2023-05-20T00:11:24;15.60;99.90
44215;DHT22;29884;47.450;19.124;2023-05-20T00:13:50;15.60;99.90
44215;DHT22;29884;47.450;19.124;2023-05-20T00:16:16;15.60;99.90
44215;DHT22;29884;47.450;19.124;2023-05-20T00:18:42;15.60;99.90
44215;DHT22;29884;47.450;19.124;2023-05-20T00:21:07;15.60;99.90
44215;DHT22;29884;47.450;19.124;2023-05-20T00:23:33;15.60;99.90
44215;DHT22;29884;47.450;19.124;2023-05-20T00:25:59;15.60;99.90
44215;DHT22;29884;47.450;19.124;2023-05-20T00:28:24;15.60;99.90
44215;DHT22;29884;47.450;19.124;2023-05-20T00:30:50;15.50;99.90
44215;DHT22;29884;47.450;19.124;2023-05-20T00:33:16;15.50;99.90
44215;DHT22;29884;47.450;19.124;2023-05-20T00:35:42;15.50;99.90
44215;DHT22;29884;47.450;19.124;2023-05-20T00:38:07;15.50;99.90
44215;DHT22;29884;47.450;19.124;2023-05-20T00:40:33;15.40;99.90
44215;DHT22;29884;47.450;19.124;2023-05-20T00:42:59;15.40;99.90
44215;DHT22;29884;47.450;19.124;2023-05-20T00:45:24;15.30;99.90
44215;DHT22;29884;47.450;19.124;2023-05-20T00:47:50;15.30;99.90
44215;DHT22;29884;47.450;19.124;2023-05-20T00:50:16;15.30;99.90
44215;DHT22;29884;47.450;19.124;2023-05-20T00:52:42;15.20;99.90
44215;DHT22;29884;47.450;19.124;2023-05-20T00:55:09;15.20;99.90
44215;DHT22;29884;47.450;19.124;2023-05-20T00:57:35;15.20;99.90
44215;DHT22;29884;47.450;19.124;2023-05-20T01:00:02;15.20;99.90
44215;DHT22;29884;47.450;19.124;2023-05-20T01:02:28;15.10;99.90
44215;DHT22;29884;47.450;19.124;2023-05-20T01:04:54;15.00;99.90
44215;DHT22;29884;47.450;19.124;2023-05-20T01:07:21;15.00;99.90
44215;DHT22;29884;47.450;19.124;2023-05-20T01:09:47;15.00;99.90
44215;DHT22;29884;47.450;19.124;2023-05-20T01:12:26;15.00;99.90
44215;DHT22;29884;47.450;19.124;2023-05-20T01:15:04;14.90;99.90
44215;DHT22;29884;47.450;19.124;2023-05-20T01:17:32;14.90;99.90
44215;DHT22;29884;47.450;19.124;2023-05-20T01:20:02;14.90;99.90
44215;DHT22;29884;47.450;19.124;2023-05-20T01:22:30;14.80;99.90
44215;DHT22;29884;47.450;19.124;2023-05-20T01:24:56;14.80;99.90
44215;DHT22;29884;47.450;19.124;2023-05-20T01:27:22;14.80;99.90
44215;DHT22;29884;47.450;19.124;2023-05-20T01:29:50;14.80;99.90
44215;DHT22;29884;47.450;19.124;2023-05-20T01:32:40;14.70;99.90
44215;DHT22;29884;47.450;19.124;2023-05-20T01:35:08;14.70;99.90
44215;DHT22;29884;47.450;19.124;2023-05-20T01:37:37;14.60;99.90
44215;DHT22;29884;47.450;19.124;2023-05-20T01:40:05;14.60;99.90
44215;DHT22;29884;47.450;19.124;2023-05-20T01:42:33;14.60;99.90
44215;DHT22;29884;47.450;19.124;2023-05-20T01:44:59;14.60;99.90
44215;DHT22;29884;47.450;19.124;2023-05-20T01:47:25;14.60;99.90
44215;DHT22;29884;47.450;19.124;2023-05-20T01:49:51;14.60;99.90
44215;DHT22;29884;47.450;19.124;2023-05-20T01:52:20;14.60;99.90
44215;DHT22;29884;47.450;19.124;2023-05-20T01:54:46;14.70;99.90
44215;DHT22;29884;47.450;19.124;2023-05-20T01:57:17;14.70;99.90
44215;DHT22;29884;47.450;19.124;2023-05-20T01:59:43;14.70;99.90
44215;DHT22;29884;47.450;19.124;2023-05-20T02:02:09;14.70;99.90
44215;DHT22;29884;47.450;19.124;2023-05-20T02:04:35;14.70;99.90
44215;DHT22;29884;47.450;19.124;2023-05-20T02:07:00;14.70;99.90
44215;DHT22;29884;47.450;19.124;2023-05-20T02:09:26;14.70;99.90
44215;DHT22;29884;47.450;19.124;2023-05-20T02:11:52;14.70;99.90
44215;DHT22;29884;47.450;19.124;2023-05-20T02:14:18;14.70;99.90
44215;DHT22;29884;47.450;19.124;2023-05-20T02:16:45;14.60;99.90
44215;DHT22;29884;47.450;19.124;2023-05-20T02:19:11;14.60;99.90
44215;DHT22;29884;47.450;19.124;2023-05-20T02:21:41;14.60;99.90
44215;DHT22;29884;47.450;19.124;2023-05-20T02:24:07;14.60;99.90
44215;DHT22;29884;47.450;19.124;2023-05-20T02:26:33;14.50;99.90
44215;DHT22;29884;47.450;19.124;2023-05-20T02:28:59;14.50;99.90
44215;DHT22;29884;47.450;19.124;2023-05-20T02:31:25;14.50;99.90
44215;DHT22;29884;47.450;19.124;2023-05-20T02:33:51;14.50;99.90
44215;DHT22;29884;47.450;19.124;2023-05-20T02:36:17;14.50;99.90
44215;DHT22;29884;47.450;19.124;2023-05-20T02:38:43;14.50;99.90
44215;DHT22;29884;47.450;19.124;2023-05-20T02:41:09;14.50;99.90
44215;DHT22;29884;47.450;19.124;2023-05-20T02:43:35;14.50;99.90
44215;DHT22;29884;47.450;19.124;2023-05-20T02:46:01;14.50;99.90
44215;DHT22;29884;47.450;19.124;2023-05-20T02:48:27;14.50;99.90
44215;DHT22;29884;47.450;19.124;2023-05-20T02:50:53;14.50;99.90
44215;DHT22;29884;47.450;19.124;2023-05-20T02:53:19;14.50;99.90
44215;DHT22;29884;47.450;19.124;2023-05-20T02:55:45;14.50;99.90
44215;DHT22;29884;47.450;19.124;2023-05-20T02:58:14;14.50;99.90
44215;DHT22;29884;47.450;19.124;2023-05-20T03:00:41;14.50;99.90
44215;DHT22;29884;47.450;19.124;2023-05-20T03:03:08;14.60;99.90
44215;DHT22;29884;47.450;19.124;2023-05-20T03:05:35;14.60;99.90
44215;DHT22;29884;47.450;19.124;2023-05-20T03:08:09;14.60;99.90
44215;DHT22;29884;47.450;19.124;2023-05-20T03:10:38;14.70;99.90
44215;DHT22;29884;47.450;19.124;2023-05-20T03:13:05;14.80;99.90
44215;DHT22;29884;47.450;19.124;2023-05-20T03:15:33;14.80;99.90
44215;DHT22;29884;47.450;19.124;2023-05-20T03:18:00;14.90;99.90
44215;DHT22;29884;47.450;19.124;2023-05-20T03:20:26;14.90;99.90
44215;DHT22;29884;47.450;19.124;2023-05-20T03:22:53;14.80;99.90
44215;DHT22;29884;47.450;19.124;2023-05-20T03:25:20;14.80;99.90
44215;DHT22;29884;47.450;19.124;2023-05-20T03:27:45;14.80;99.90
44215;DHT22;29884;47.450;19.124;2023-05-20T03:30:11;14.70;99.90
44215;DHT22;29884;47.450;19.124;2023-05-20T03:32:37;14.70;99.90
44215;DHT22;29884;47.450;19.124;2023-05-20T03:35:04;14.70;99.90
44215;DHT22;29884;47.450;19.124;2023-05-20T03:37:29;14.80;99.90
44215;DHT22;29884;47.450;19.124;2023-05-20T03:39:55;14.80;99.90
44215;DHT22;29884;47.450;19.124;2023-05-20T03:42:21;14.80;99.90
44215;DHT22;29884;47.450;19.124;2023-05-20T03:44:46;14.80;99.90
44215;DHT22;29884;47.450;19.124;2023-05-20T03:47:12;14.80;99.90
44215;DHT22;29884;47.450;19.124;2023-05-20T03:49:38;14.90;99.90
44215;DHT22;29884;47.450;19.124;2023-05-20T03:52:05;14.90;99.90
44215;DHT22;29884;47.450;19.124;2023-05-20T03:54:31;14.90;99.90
44215;DHT22;29884;47.450;19.124;2023-05-20T03:56:57;14.90;99.90
44215;DHT22;29884;47.450;19.124;2023-05-20T03:59:25;15.00;99.90
44215;DHT22;29884;47.450;19.124;2023-05-20T04:01:51;15.00;99.90
44215;DHT22;29884;47.450;19.124;2023-05-20T04:04:17;15.00;99.90
44215;DHT22;29884;47.450;19.124;2023-05-20T04:06:43;15.10;99.90
44215;DHT22;29884;47.450;19.124;2023-05-20T04:09:09;15.10;99.90
44215;DHT22;29884;47.450;19.124;2023-05-20T04:11:35;15.10;99.90
44215;DHT22;29884;47.450;19.124;2023-05-20T04:14:01;15.10;99.90
44215;DHT22;29884;47.450;19.124;2023-05-20T04:16:27;15.10;99.90
44215;DHT22;29884;47.450;19.124;2023-05-20T04:18:54;15.10;99.90
44215;DHT22;29884;47.450;19.124;2023-05-20T04:21:20;15.20;99.90
44215;DHT22;29884;47.450;19.124;2023-05-20T04:23:46;15.20;99.90
44215;DHT22;29884;47.450;19.124;2023-05-20T04:26:11;15.20;99.90
44215;DHT22;29884;47.450;19.124;2023-05-20T04:28:37;15.30;99.90
44215;DHT22;29884;47.450;19.124;2023-05-20T04:31:06;15.30;99.90
44215;DHT22;29884;47.450;19.124;2023-05-20T04:33:33;15.40;99.90
44215;DHT22;29884;47.450;19.124;2023-05-20T04:36:03;15.40;99.90
44215;DHT22;29884;47.450;19.124;2023-05-20T04:38:30;15.40;99.90
44215;DHT22;29884;47.450;19.124;2023-05-20T04:40:57;15.50;99.90
44215;DHT22;29884;47.450;19.124;2023-05-20T04:43:26;15.60;99.90
44215;DHT22;29884;47.450;19.124;2023-05-20T04:45:57;15.60;99.90
44215;DHT22;29884;47.450;19.124;2023-05-20T04:48:24;15.70;99.90
44215;DHT22;29884;47.450;19.124;2023-05-20T04:50:50;15.70;99.90
44215;DHT22;29884;47.450;19.124;2023-05-20T04:53:19;15.80;99.90
44215;DHT22;29884;47.450;19.124;2023-05-20T04:55:48;15.90;99.90
44215;DHT22;29884;47.450;19.124;2023-05-20T04:58:19;16.00;99.90
44215;DHT22;29884;47.450;19.124;2023-05-20T05:00:49;16.10;99.90
44215;DHT22;29884;47.450;19.124;2023-05-20T05:03:15;16.20;99.90
44215;DHT22;29884;47.450;19.124;2023-05-20T05:05:41;16.30;99.90
44215;DHT22;29884;47.450;19.124;2023-05-20T05:08:08;16.40;99.90
44215;DHT22;29884;47.450;19.124;2023-05-20T05:10:35;16.50;99.90
44215;DHT22;29884;47.450;19.124;2023-05-20T05:13:02;16.50;99.90
44215;DHT22;29884;47.450;19.124;2023-05-20T05:15:27;16.60;99.90
44215;DHT22;29884;47.450;19.124;2023-05-20T05:17:53;16.70;99.90
44215;DHT22;29884;47.450;19.124;2023-05-20T05:20:19;16.70;99.90
44215;DHT22;29884;47.450;19.124;2023-05-20T05:22:45;16.70;99.90
44215;DHT22;29884;47.450;19.124;2023-05-20T05:25:11;16.70;99.90
44215;DHT22;29884;47.450;19.124;2023-05-20T05:27:38;16.80;99.90
44215;DHT22;29884;47.450;19.124;2023-05-20T05:30:05;17.00;99.90
44215;DHT22;29884;47.450;19.124;2023-05-20T05:32:31;17.10;99.90
44215;DHT22;29884;47.450;19.124;2023-05-20T05:34:56;17.30;99.90
44215;DHT22;29884;47.450;19.124;2023-05-20T05:37:22;17.40;99.90
44215;DHT22;29884;47.450;19.124;2023-05-20T05:39:48;17.50;99.90
44215;DHT22;29884;47.450;19.124;2023-05-20T05:42:14;17.50;99.90
44215;DHT22;29884;47.450;19.124;2023-05-20T05:44:40;17.60;99.90
44215;DHT22;29884;47.450;19.124;2023-05-20T05:47:05;17.70;99.90
44215;DHT22;29884;47.450;19.124;2023-05-20T05:49:31;17.70;99.90
44215;DHT22;29884;47.450;19.124;2023-05-20T05:51:57;17.90;99.90
44215;DHT22;29884;47.450;19.124;2023-05-20T05:54:23;18.00;99.90
44215;DHT22;29884;47.450;19.124;2023-05-20T05:56:52;18.10;99.90
44215;DHT22;29884;47.450;19.124;2023-05-20T05:59:18;18.10;99.90
44215;DHT22;29884;47.450;19.124;2023-05-20T06:01:44;18.20;99.90
44215;DHT22;29884;47.450;19.124;2023-05-20T06:04:10;18.30;99.90
44215;DHT22;29884;47.450;19.124;2023-05-20T06:06:36;18.30;99.90
44215;DHT22;29884;47.450;19.124;2023-05-20T06:09:02;18.40;99.90
44215;DHT22;29884;47.450;19.124;2023-05-20T06:11:27;18.40;99.90
44215;DHT22;29884;47.450;19.124;2023-05-20T06:13:53;18.50;99.90
44215;DHT22;29884;47.450;19.124;2023-05-20T06:16:19;18.50;99.90
44215;DHT22;29884;47.450;19.124;2023-05-20T06:18:45;18.60;99.90
44215;DHT22;29884;47.450;19.124;2023-05-20T06:21:11;18.60;99.90
44215;DHT22;29884;47.450;19.124;2023-05-20T06:23:37;18.60;99.90
44215;DHT22;29884;47.450;19.124;2023-05-20T06:26:02;18.60;99.90
44215;DHT22;29884;47.450;19.124;2023-05-20T06:28:29;18.70;99.90
44215;DHT22;29884;47.450;19.124;2023-05-20T06:30:55;18.70;99.90
44215;DHT22;29884;47.450;19.124;2023-05-20T06:33:22;18.80;99.90
44215;DHT22;29884;47.450;19.124;2023-05-20T06:35:57;18.80;99.90
44215;DHT22;29884;47.450;19.124;2023-05-20T06:38:23;18.90;99.90
44215;DHT22;29884;47.450;19.124;2023-05-20T06:40:49;19.00;99.90
44215;DHT22;29884;47.450;19.124;2023-05-20T06:43:15;19.00;99.90
44215;DHT22;29884;47.450;19.124;2023-05-20T06:45:41;19.10;99.90
44215;DHT22;29884;47.450;19.124;2023-05-20T06:48:07;19.20;99.90
44215;DHT22;29884;47.450;19.124;2023-05-20T06:50:33;19.30;99.90
44215;DHT22;29884;47.450;19.124;2023-05-20T06:52:59;19.40;99.90
44215;DHT22;29884;47.450;19.124;2023-05-20T06:55:25;19.40;99.90
44215;DHT22;29884;47.450;19.124;2023-05-20T06:57:51;19.40;99.90
44215;DHT22;29884;47.450;19.124;2023-05-20T07:00:17;19.50;99.90
44215;DHT22;29884;47.450;19.124;2023-05-20T07:02:43;19.60;99.90
44215;DHT22;29884;47.450;19.124;2023-05-20T07:05:09;19.60;99.90
44215;DHT22;29884;47.450;19.124;2023-05-20T07:07:35;19.50;99.90
44215;DHT22;29884;47.450;19.124;2023-05-20T07:10:01;19.60;99.90
44215;DHT22;29884;47.450;19.124;2023-05-20T07:12:30;19.80;99.90
44215;DHT22;29884;47.450;19.124;2023-05-20T07:14:56;19.80;99.90
44215;DHT22;29884;47.450;19.124;2023-05-20T07:17:22;20.00;99.90
44215;DHT22;29884;47.450;19.124;2023-05-20T07:19:48;20.00;99.90
44215;DHT22;29884;47.450;19.124;2023-05-20T07:22:13;19.90;99.90
44215;DHT22;29884;47.450;19.124;2023-05-20T07:24:39;19.90;99.90
44215;DHT22;29884;47.450;19.124;2023-05-20T07:27:05;20.10;99.90
44215;DHT22;29884;47.450;19.124;2023-05-20T07:29:30;20.10;99.90
44215;DHT22;29884;47.450;19.124;2023-05-20T07:31:56;20.20;99.90
44215;DHT22;29884;47.450;19.124;2023-05-20T07:34:22;20.20;99.90
44215;DHT22;29884;47.450;19.124;2023-05-20T07:36:47;20.30;99.90
44215;DHT22;29884;47.450;19.124;2023-05-20T07:39:14;20.30;99.90
44215;DHT22;29884;47.450;19.124;2023-05-20T07:41:40;20.40;99.90
44215;DHT22;29884;47.450;19.124;2023-05-20T07:44:06;20.30;99.90
44215;DHT22;29884;47.450;19.124;2023-05-20T07:46:35;20.50;99.90
44215;DHT22;29884;47.450;19.124;2023-05-20T07:49:03;20.80;99.90
44215;DHT22;29884;47.450;19.124;2023-05-20T07:51:28;21.00;99.90
44215;DHT22;29884;47.450;19.124;2023-05-20T07:53:54;20.90;99.90
44215;DHT22;29884;47.450;19.124;2023-05-20T07:56:20;21.00;99.90
44215;DHT22;29884;47.450;19.124;2023-05-20T07:58:55;21.20;99.90
44215;DHT22;29884;47.450;19.124;2023-05-20T08:01:21;21.10;99.90
44215;DHT22;29884;47.450;19.124;2023-05-20T08:03:47;21.20;99.90
44215;DHT22;29884;47.450;19.124;2023-05-20T08:06:12;21.20;99.90
44215;DHT22;29884;47.450;19.124;2023-05-20T08:08:38;21.40;99.90
44215;DHT22;29884;47.450;19.124;2023-05-20T08:11:06;21.30;99.90
44215;DHT22;29884;47.450;19.124;2023-05-20T08:13:32;21.40;99.90
44215;DHT22;29884;47.450;19.124;2023-05-20T08:15:58;21.60;99.90
44215;DHT22;29884;47.450;19.124;2023-05-20T08:18:23;21.60;99.90
44215;DHT22;29884;47.450;19.124;2023-05-20T08:20:49;21.60;99.90
44215;DHT22;29884;47.450;19.124;2023-05-20T08:23:15;22.00;99.90
44215;DHT22;29884;47.450;19.124;2023-05-20T08:25:41;21.90;99.90
44215;DHT22;29884;47.450;19.124;2023-05-20T08:28:07;21.90;99.90
44215;DHT22;29884;47.450;19.124;2023-05-20T08:30:33;22.20;99.90
44215;DHT22;29884;47.450;19.124;2023-05-20T08:32:59;22.30;99.90
44215;DHT22;29884;47.450;19.124;2023-05-20T08:35:25;22.20;99.90
44215;DHT22;29884;47.450;19.124;2023-05-20T08:37:51;22.20;99.90
44215;DHT22;29884;47.450;19.124;2023-05-20T08:40:21;22.50;99.90
44215;DHT22;29884;47.450;19.124;2023-05-20T08:42:50;22.70;99.90
44215;DHT22;29884;47.450;19.124;2023-05-20T08:45:20;22.90;99.90
44215;DHT22;29884;47.450;19.124;2023-05-20T08:47:48;22.90;99.90
44215;DHT22;29884;47.450;19.124;2023-05-20T08:50:15;23.00;99.90
44215;DHT22;29884;47.450;19.124;2023-05-20T08:52:49;23.20;99.90
44215;DHT22;29884;47.450;19.124;2023-05-20T08:55:42;23.30;99.90
44215;DHT22;29884;47.450;19.124;2023-05-20T08:58:11;23.10;99.90
44215;DHT22;29884;47.450;19.124;2023-05-20T09:00:37;23.20;99.90
44215;DHT22;29884;47.450;19.124;2023-05-20T09:03:03;23.30;99.90
44215;DHT22;29884;47.450;19.124;2023-05-20T09:05:30;23.60;99.90
44215;DHT22;29884;47.450;19.124;2023-05-20T09:08:09;23.60;99.90
44215;DHT22;29884;47.450;19.124;2023-05-20T09:10:36;23.70;99.90
44215;DHT22;29884;47.450;19.124;2023-05-20T09:13:03;23.70;99.90
44215;DHT22;29884;47.450;19.124;2023-05-20T09:15:30;23.60;99.90
44215;DHT22;29884;47.450;19.124;2023-05-20T09:18:02;23.70;99.90
44215;DHT22;29884;47.450;19.124;2023-05-20T09:20:28;23.80;99.90
44215;DHT22;29884;47.450;19.124;2023-05-20T09:22:58;24.10;99.90
44215;DHT22;29884;47.450;19.124;2023-05-20T09:25:24;24.30;99.90
44215;DHT22;29884;47.450;19.124;2023-05-20T09:27:50;24.40;99.90
44215;DHT22;29884;47.450;19.124;2023-05-20T09:30:20;24.30;99.90
44215;DHT22;29884;47.450;19.124;2023-05-20T09:32:52;24.30;99.90
44215;DHT22;29884;47.450;19.124;2023-05-20T09:35:18;24.50;99.90
44215;DHT22;29884;47.450;19.124;2023-05-20T09:37:46;24.60;99.90
44215;DHT22;29884;47.450;19.124;2023-05-20T09:40:13;24.50;99.90
44215;DHT22;29884;47.450;19.124;2023-05-20T09:45:14;24.60;99.60
44215;DHT22;29884;47.450;19.124;2023-05-20T09:47:40;24.80;99.20
44215;DHT22;29884;47.450;19.124;2023-05-20T09:50:08;24.80;98.60
44215;DHT22;29884;47.450;19.124;2023-05-20T09:52:36;24.80;97.80
44215;DHT22;29884;47.450;19.124;2023-05-20T09:55:04;24.90;98.50
44215;DHT22;29884;47.450;19.124;2023-05-20T09:57:34;25.10;97.80
44215;DHT22;29884;47.450;19.124;2023-05-20T10:00:01;25.30;95.70
44215;DHT22;29884;47.450;19.124;2023-05-20T10:02:28;25.60;95.10
44215;DHT22;29884;47.450;19.124;2023-05-20T10:04:55;25.40;93.30
44215;DHT22;29884;47.450;19.124;2023-05-20T10:07:37;25.60;95.30
44215;DHT22;29884;47.450;19.124;2023-05-20T10:10:39;25.50;93.70
44215;DHT22;29884;47.450;19.124;2023-05-20T10:21:19;25.80;86.30
44215;DHT22;29884;47.450;19.124;2023-05-20T10:23:46;25.70;83.60
44215;DHT22;29884;47.450;19.124;2023-05-20T10:26:12;25.70;83.20
44215;DHT22;29884;47.450;19.124;2023-05-20T10:28:40;25.70;82.00
44215;DHT22;29884;47.450;19.124;2023-05-20T10:31:21;25.90;84.20
44215;DHT22;29884;47.450;19.124;2023-05-20T10:33:50;25.80;84.60
44215;DHT22;29884;47.450;19.124;2023-05-20T10:36:27;26.20;83.20
44215;DHT22;29884;47.450;19.124;2023-05-20T10:38:56;26.50;84.10
44215;DHT22;29884;47.450;19.124;2023-05-20T10:41:27;26.30;78.90
44215;DHT22;29884;47.450;19.124;2023-05-20T10:44:04;26.20;77.60
44215;DHT22;29884;47.450;19.124;2023-05-20T10:46:31;26.20;74.30
44215;DHT22;29884;47.450;19.124;2023-05-20T10:48:57;26.30;74.40
44215;DHT22;29884;47.450;19.124;2023-05-20T10:51:24;26.20;69.40
44215;DHT22;29884;47.450;19.124;2023-05-20T10:53:54;26.10;69.70
44215;DHT22;29884;47.450;19.124;2023-05-20T10:56:22;26.30;69.60
44215;DHT22;29884;47.450;19.124;2023-05-20T10:58:49;26.50;67.30
44215;DHT22;29884;47.450;19.124;2023-05-20T11:01:16;26.50;69.00
44215;DHT22;29884;47.450;19.124;2023-05-20T11:03:44;26.50;68.10
44215;DHT22;29884;47.450;19.124;2023-05-20T11:06:13;26.70;67.80
44215;DHT22;29884;47.450;19.124;2023-05-20T11:08:38;26.60;68.60
44215;DHT22;29884;47.450;19.124;2023-05-20T11:11:04;26.60;70.10
44215;DHT22;29884;47.450;19.124;2023-05-20T11:13:30;26.60;65.30
44215;DHT22;29884;47.450;19.124;2023-05-20T11:15:56;26.70;68.20
44215;DHT22;29884;47.450;19.124;2023-05-20T11:18:25;26.90;67.10
44215;DHT22;29884;47.450;19.124;2023-05-20T11:20:51;26.90;67.90
44215;DHT22;29884;47.450;19.124;2023-05-20T11:23:18;27.00;67.90
44215;DHT22;29884;47.450;19.124;2023-05-20T11:25:44;27.00;66.80
44215;DHT22;29884;47.450;19.124;2023-05-20T11:28:13;26.80;66.20
44215;DHT22;29884;47.450;19.124;2023-05-20T11:30:41;26.90;67.50
44215;DHT22;29884;47.450;19.124;2023-05-20T11:33:11;26.60;66.40
44215;DHT22;29884;47.450;19.124;2023-05-20T11:35:44;26.70;69.30
44215;DHT22;29884;47.450;19.124;2023-05-20T11:38:10;26.90;70.70
44215;DHT22;29884;47.450;19.124;2023-05-20T11:40:36;27.00;70.20
44215;DHT22;29884;47.450;19.124;2023-05-20T11:43:02;26.90;69.20
44215;DHT22;29884;47.450;19.124;2023-05-20T11:45:41;27.00;70.60
44215;DHT22;29884;47.450;19.124;2023-05-20T11:48:08;26.90;71.40
44215;DHT22;29884;47.450;19.124;2023-05-20T11:53:06;26.90;70.90
44215;DHT22;29884;47.450;19.124;2023-05-20T11:55:32;26.80;70.10
44215;DHT22;29884;47.450;19.124;2023-05-20T11:57:59;26.90;71.90
44215;DHT22;29884;47.450;19.124;2023-05-20T12:00:25;27.10;71.70
44215;DHT22;29884;47.450;19.124;2023-05-20T12:02:51;27.10;71.70
44215;DHT22;29884;47.450;19.124;2023-05-20T12:05:17;27.30;73.60
44215;DHT22;29884;47.450;19.124;2023-05-20T12:07:43;27.10;71.30
44215;DHT22;29884;47.450;19.124;2023-05-20T12:10:09;26.90;72.60
44215;DHT22;29884;47.450;19.124;2023-05-20T12:12:35;26.90;72.40
44215;DHT22;29884;47.450;19.124;2023-05-20T12:15:03;27.00;72.20
44215;DHT22;29884;47.450;19.124;2023-05-20T12:17:31;27.10;71.00
44215;DHT22;29884;47.450;19.124;2023-05-20T12:19:56;27.10;71.40
44215;DHT22;29884;47.450;19.124;2023-05-20T12:22:22;27.40;69.20
44215;DHT22;29884;47.450;19.124;2023-05-20T12:24:48;27.50;69.30
44215;DHT22;29884;47.450;19.124;2023-05-20T12:27:14;27.50;70.30
44215;DHT22;29884;47.450;19.124;2023-05-20T12:29:40;27.20;72.60
44215;DHT22;29884;47.450;19.124;2023-05-20T12:32:06;27.00;71.50
44215;DHT22;29884;47.450;19.124;2023-05-20T12:34:31;27.20;74.00
44215;DHT22;29884;47.450;19.124;2023-05-20T12:36:57;27.10;71.50
44215;DHT22;29884;47.450;19.124;2023-05-20T12:39:24;26.90;69.60
44215;DHT22;29884;47.450;19.124;2023-05-20T12:41:50;26.90;70.10
44215;DHT22;29884;47.450;19.124;2023-05-20T12:44:16;26.90;67.10
44215;DHT22;29884;47.450;19.124;2023-05-20T12:46:42;27.10;69.40
44215;DHT22;29884;47.450;19.124;2023-05-20T12:49:08;27.50;70.20
44215;DHT22;29884;47.450;19.124;2023-05-20T12:51:33;27.40;66.50
44215;DHT22;29884;47.450;19.124;2023-05-20T12:53:59;27.30;68.30
44215;DHT22;29884;47.450;19.124;2023-05-20T12:56:25;27.10;67.80
44215;DHT22;29884;47.450;19.124;2023-05-20T12:58:52;26.80;68.80
44215;DHT22;29884;47.450;19.124;2023-05-20T13:01:17;26.80;70.40
44215;DHT22;29884;47.450;19.124;2023-05-20T13:03:43;27.00;73.40
44215;DHT22;29884;47.450;19.124;2023-05-20T13:06:09;27.40;72.00
44215;DHT22;29884;47.450;19.124;2023-05-20T13:08:34;27.40;69.40
44215;DHT22;29884;47.450;19.124;2023-05-20T13:11:00;27.50;71.90
44215;DHT22;29884;47.450;19.124;2023-05-20T13:13:26;27.40;70.30
44215;DHT22;29884;47.450;19.124;2023-05-20T13:15:53;27.30;71.80
44215;DHT22;29884;47.450;19.124;2023-05-20T13:18:18;27.20;71.80
44215;DHT22;29884;47.450;19.124;2023-05-20T13:20:45;26.90;68.00
44215;DHT22;29884;47.450;19.124;2023-05-20T13:23:11;27.20;71.00
44215;DHT22;29884;47.450;19.124;2023-05-20T13:25:36;27.10;70.40
44215;DHT22;29884;47.450;19.124;2023-05-20T13:28:03;27.20;72.70
44215;DHT22;29884;47.450;19.124;2023-05-20T13:30:29;27.00;70.80
44215;DHT22;29884;47.450;19.124;2023-05-20T13:32:56;27.10;73.30
44215;DHT22;29884;47.450;19.124;2023-05-20T13:35:22;26.50;72.80
44215;DHT22;29884;47.450;19.124;2023-05-20T13:37:48;26.10;72.10
44215;DHT22;29884;47.450;19.124;2023-05-20T13:40:14;26.10;70.60
44215;DHT22;29884;47.450;19.124;2023-05-20T13:42:39;26.20;70.10
44215;DHT22;29884;47.450;19.124;2023-05-20T13:45:05;26.60;70.40
44215;DHT22;29884;47.450;19.124;2023-05-20T13:47:31;26.80;69.70
44215;DHT22;29884;47.450;19.124;2023-05-20T13:49:57;27.00;70.00
44215;DHT22;29884;47.450;19.124;2023-05-20T13:52:23;27.30;71.80
44215;DHT22;29884;47.450;19.124;2023-05-20T13:54:48;27.10;69.90
44215;DHT22;29884;47.450;19.124;2023-05-20T13:57:14;26.80;67.70
44215;DHT22;29884;47.450;19.124;2023-05-20T13:59:40;26.70;67.90
44215;DHT22;29884;47.450;19.124;2023-05-20T14:02:06;26.80;67.70
44215;DHT22;29884;47.450;19.124;2023-05-20T14:04:32;26.80;68.60
44215;DHT22;29884;47.450;19.124;2023-05-20T14:07:06;26.90;69.60
44215;DHT22;29884;47.450;19.124;2023-05-20T14:09:32;26.90;70.00
44215;DHT22;29884;47.450;19.124;2023-05-20T14:11:58;26.90;66.00
44215;DHT22;29884;47.450;19.124;2023-05-20T14:14:24;26.70;66.40
44215;DHT22;29884;47.450;19.124;2023-05-20T14:16:49;26.60;67.30
44215;DHT22;29884;47.450;19.124;2023-05-20T14:19:15;26.60;68.10
44215;DHT22;29884;47.450;19.124;2023-05-20T14:21:41;26.80;67.80
44215;DHT22;29884;47.450;19.124;2023-05-20T14:24:07;26.90;69.10
44215;DHT22;29884;47.450;19.124;2023-05-20T14:26:33;26.90;66.60
44215;DHT22;29884;47.450;19.124;2023-05-20T14:28:59;26.70;64.50
44215;DHT22;29884;47.450;19.124;2023-05-20T14:31:25;26.70;61.70
44215;DHT22;29884;47.450;19.124;2023-05-20T14:33:51;26.60;62.70
44215;DHT22;29884;47.450;19.124;2023-05-20T14:36:17;26.50;61.90
44215;DHT22;29884;47.450;19.124;2023-05-20T14:38:43;26.60;63.60
44215;DHT22;29884;47.450;19.124;2023-05-20T14:41:09;26.70;60.40
44215;DHT22;29884;47.450;19.124;2023-05-20T14:43:34;26.70;63.10
44215;DHT22;29884;47.450;19.124;2023-05-20T14:46:01;26.70;62.20
44215;DHT22;29884;47.450;19.124;2023-05-20T14:48:27;26.50;61.10
44215;DHT22;29884;47.450;19.124;2023-05-20T14:50:53;26.40;62.30
44215;DHT22;29884;47.450;19.124;2023-05-20T14:53:19;26.40;63.30
44215;DHT22;29884;47.450;19.124;2023-05-20T14:55:45;26.30;63.70
44215;DHT22;29884;47.450;19.124;2023-05-20T14:58:11;26.10;65.00
44215;DHT22;29884;47.450;19.124;2023-05-20T15:00:37;26.30;65.50
44215;DHT22;29884;47.450;19.124;2023-05-20T15:03:03;26.40;63.80
44215;DHT22;29884;47.450;19.124;2023-05-20T15:05:29;26.40;62.00
44215;DHT22;29884;47.450;19.124;2023-05-20T15:07:55;26.30;64.30
44215;DHT22;29884;47.450;19.124;2023-05-20T15:10:21;26.40;65.10
44215;DHT22;29884;47.450;19.124;2023-05-20T15:12:47;26.50;66.40
44215;DHT22;29884;47.450;19.124;2023-05-20T15:15:13;26.40;65.50
44215;DHT22;29884;47.450;19.124;2023-05-20T15:17:39;26.40;67.20
44215;DHT22;29884;47.450;19.124;2023-05-20T15:20:05;26.20;64.40
44215;DHT22;29884;47.450;19.124;2023-05-20T15:22:31;26.10;67.40
44215;DHT22;29884;47.450;19.124;2023-05-20T15:24:57;25.80;66.70
44215;DHT22;29884;47.450;19.124;2023-05-20T15:27:22;25.70;68.10